createdAt,value
2023-03-24T00:00:30.451Z,21.6
2023-03-24T00:06:08.165Z,19.7
2023-03-24T00:11:47.718Z,19
2023-03-24T00:17:08.516Z,18.6
2023-03-24T00:22:44.593Z,18.4
2023-03-24T00:28:20.362Z,18.3
2023-03-24T00:33:57.028Z,18.3
2023-03-24T00:39:48.688Z,18.1
2023-03-24T00:45:39.909Z,20.5
2023-03-24T00:51:01.554Z,21.8
2023-03-24T00:56:38.077Z,19.9
2023-03-24T01:02:14.086Z,19.1
2023-03-24T01:07:49.727Z,18.6
2023-03-24T01:13:41.276Z,18.5
2023-03-24T01:19:02.164Z,18.4
2023-03-24T01:24:53.812Z,18.3
2023-03-24T01:30:46.070Z,18.1
2023-03-24T01:36:37.836Z,20
2023-03-24T01:42:31.949Z,21.5
2023-03-24T01:48:25.473Z,20.1
2023-03-24T01:54:17.426Z,19.2
2023-03-24T02:00:08.556Z,18.6
2023-03-24T02:05:45.879Z,18.4
2023-03-24T02:11:22.064Z,18.3
2023-03-24T02:16:58.551Z,18.3
2023-03-24T02:22:35.026Z,18.1
2023-03-24T02:28:25.937Z,19.9
2023-03-24T02:34:17.589Z,21.4
2023-03-24T02:39:54.039Z,20
2023-03-24T02:45:30.434Z,19.3
2023-03-24T02:51:22.372Z,18.6
2023-03-24T02:57:14.048Z,18.4
2023-03-24T03:03:05.836Z,18.3
2023-03-24T03:08:58.626Z,18.3
2023-03-24T03:14:49.952Z,18.1
2023-03-24T03:20:26.330Z,20
2023-03-24T03:26:18.051Z,21.4
2023-03-24T03:31:07.307Z,19.9
2023-03-24T03:36:44.199Z,19.3
2023-03-24T03:47:40.744Z,18.4
2023-03-24T03:53:11.682Z,18.3
2023-03-24T03:59:03.264Z,18.2
2023-03-24T04:04:24.508Z,18.1
2023-03-24T04:10:09.766Z,18.6
2023-03-24T04:16:02.124Z,20.9
2023-03-24T04:21:38.292Z,20.8
2023-03-24T04:27:28.934Z,19.4
2023-03-24T04:33:20.837Z,18.8
2023-03-24T04:39:13.007Z,18.4
2023-03-24T04:45:06.361Z,18.3
2023-03-24T04:50:42.358Z,18.1
2023-03-24T04:56:34.082Z,18.1
2023-03-24T05:02:26.771Z,18.6
2023-03-24T05:08:18.152Z,20.9
2023-03-24T05:14:14.008Z,20.7
2023-03-24T05:19:51.421Z,19.4
2023-03-24T05:31:04.518Z,18.4
2023-03-24T05:36:41.055Z,18.3
2023-03-24T05:42:33.195Z,18.1
2023-03-24T05:48:25.640Z,18.1
2023-03-24T05:54:17.121Z,18.5
2023-03-24T05:59:53.304Z,21
2023-03-24T06:05:46.361Z,20.6
2023-03-24T06:11:38.049Z,19.3
2023-03-24T06:23:05.536Z,18.4
2023-03-24T06:28:42.331Z,18.1
2023-03-24T06:34:18.751Z,17.9
2023-03-24T06:42:37.088Z,18.9
2023-03-24T06:48:32.153Z,21.3
2023-03-24T06:54:23.179Z,19.4
2023-03-24T07:00:17.269Z,18.9
2023-03-24T07:05:55.298Z,18.6
2023-03-24T07:13:05.214Z,18.3
2023-03-24T07:18:57.562Z,18.3
2023-03-24T07:24:49.712Z,21.2
2023-03-24T07:30:56.905Z,20.1
2023-03-24T07:36:48.602Z,19.1
2023-03-24T07:42:41.396Z,18.8
2023-03-24T07:48:35.936Z,18.5
2023-03-24T07:54:41.266Z,18.8
2023-03-24T08:00:35.022Z,21.5
2023-03-24T08:06:28.188Z,19.8
2023-03-24T08:12:13.742Z,19.1
2023-03-24T08:23:41.710Z,18.4
2023-03-24T08:29:35.509Z,20.6
2023-03-24T08:35:28.357Z,20.9
2023-03-24T08:41:25.192Z,19.3
2023-03-24T08:47:04.387Z,18.8
2023-03-24T08:52:41.453Z,18.6
2023-03-24T08:58:17.779Z,19.8
2023-03-24T09:03:53.468Z,21.3
2023-03-24T09:09:57.801Z,19.6
2023-03-24T09:15:02.643Z,19
2023-03-24T09:20:24.390Z,18.8
2023-03-24T09:26:18.636Z,18.5
2023-03-24T09:32:13.468Z,21.1
2023-03-24T09:37:48.769Z,20.4
2023-03-24T09:43:30.080Z,19.3
2023-03-24T09:49:06.481Z,18.9
2023-03-24T10:00:19.499Z,18.6
2023-03-24T10:06:15.954Z,21.8
2023-03-24T10:11:51.739Z,19.8
2023-03-24T10:18:03.079Z,19.1
2023-03-24T10:23:57.091Z,18.8
2023-03-24T10:29:33.425Z,18.5
2023-03-24T10:35:10.324Z,21.8
2023-03-24T10:41:07.856Z,20.1
2023-03-24T10:46:59.941Z,19.3
2023-03-24T10:52:59.283Z,18.9
2023-03-24T10:58:52.246Z,18.6
2023-03-24T11:04:32.105Z,20.9
2023-03-24T11:09:53.036Z,20.7
2023-03-24T11:15:55.066Z,19.4
2023-03-24T11:21:48.417Z,18.9
2023-03-24T11:33:17.900Z,19.6
2023-03-24T11:39:23.112Z,21.2
2023-03-24T11:45:14.893Z,19.5
2023-03-24T11:50:54.118Z,19
2023-03-24T11:56:30.115Z,18.8
2023-03-24T12:02:24.440Z,18.6
2023-03-24T12:08:19.420Z,18.3
2023-03-24T12:14:23.071Z,18.1
2023-03-24T12:20:30.846Z,17.9
2023-03-24T12:26:22.623Z,17.8
2023-03-24T12:32:13.113Z,17.6
2023-03-24T12:38:08.211Z,17.4
2023-03-24T12:44:00.966Z,17.4
2023-03-24T12:50:04.289Z,17.3
2023-03-24T12:55:53.431Z,17.1
2023-03-24T13:01:47.598Z,17.1
2023-03-24T13:13:39.101Z,16.9
2023-03-24T13:19:32.678Z,16.8
2023-03-24T13:25:23.735Z,16.7
2023-03-24T13:31:31.075Z,16.6
2023-03-24T13:37:23.617Z,16.6
2023-03-24T13:42:59.666Z,16.5
2023-03-24T13:48:36.782Z,16.5
2023-03-24T13:54:28.754Z,16.4
2023-03-24T14:00:20.627Z,16.4
2023-03-24T14:05:58.328Z,16.4
2023-03-24T14:11:34.744Z,16.3
2023-03-24T14:16:56.454Z,16.3
2023-03-24T14:22:47.756Z,16.3
2023-03-24T14:28:38.847Z,16.3
2023-03-24T14:34:45.936Z,16.2
2023-03-24T14:40:46.932Z,16.2
2023-03-24T14:46:52.910Z,16.2
2023-03-24T14:52:30.442Z,16.1
2023-03-24T14:58:06.192Z,16.1
2023-03-24T15:03:52.978Z,16.1
2023-03-24T15:09:46.114Z,16.1
2023-03-24T15:15:37.582Z,16.1
2023-03-24T15:21:29.830Z,16.1
2023-03-24T15:27:21.010Z,16.1
2023-03-24T15:33:12.529Z,16
2023-03-24T15:38:49.460Z,16
2023-03-24T15:44:05.750Z,15.9
2023-03-24T15:49:51.015Z,15.9
2023-03-24T15:55:42.776Z,15.9
2023-03-24T16:01:33.838Z,15.9
2023-03-24T16:07:38.421Z,15.9
2023-03-24T16:13:30.369Z,15.9
2023-03-24T16:19:06.400Z,15.9
2023-03-24T16:24:42.647Z,15.9
2023-03-24T16:30:04.081Z,15.9
2023-03-24T16:35:40.202Z,15.9
2023-03-24T16:41:01.123Z,15.9
2023-03-24T16:46:55.851Z,15.9
2023-03-24T16:52:47.248Z,15.8
2023-03-24T16:58:38.311Z,15.8
2023-03-24T17:04:30.977Z,15.8
2023-03-24T17:10:24.931Z,15.8
2023-03-24T17:16:15.291Z,15.8
2023-03-24T17:21:36.297Z,15.8
2023-03-24T17:27:27.355Z,15.8
2023-03-24T17:33:18.846Z,15.8
2023-03-24T17:39:08.150Z,15.8
2023-03-24T17:44:58.898Z,15.8
2023-03-24T17:50:50.254Z,15.8
2023-03-24T17:56:26.656Z,15.8
2023-03-24T18:02:20.501Z,15.8
2023-03-24T18:08:13.435Z,15.8
2023-03-24T18:14:05.328Z,15.8
2023-03-24T18:20:10.265Z,15.8
2023-03-24T18:26:01.541Z,15.8
2023-03-24T18:31:54.103Z,15.8
2023-03-24T18:37:46.460Z,15.8
2023-03-24T18:43:38.117Z,15.8
2023-03-24T18:49:30.140Z,15.8
2023-03-24T18:55:06.432Z,15.8
2023-03-24T19:00:43.451Z,15.8
2023-03-24T19:06:19.838Z,15.8
2023-03-24T19:11:42.094Z,15.8
2023-03-24T19:17:19.065Z,15.8
2023-03-24T19:22:55.294Z,15.8
2023-03-24T19:28:46.075Z,15.8
2023-03-24T19:34:38.117Z,15.8
2023-03-24T19:40:29.809Z,15.8
2023-03-24T19:46:23.415Z,15.8
2023-03-24T19:52:15.421Z,15.8
2023-03-24T19:58:07.131Z,15.8
2023-03-24T20:03:58.892Z,15.8
2023-03-24T20:09:40.465Z,15.8
2023-03-24T20:15:16.706Z,15.8
2023-03-24T20:21:08.421Z,15.8
2023-03-24T20:26:59.920Z,15.7
2023-03-24T20:32:51.447Z,15.7
2023-03-24T20:38:43.003Z,15.8
2023-03-24T20:44:34.476Z,15.7
2023-03-24T20:50:26.249Z,15.7
2023-03-24T20:56:03.215Z,15.7
2023-03-24T21:01:55.830Z,15.7
2023-03-24T21:07:40.055Z,15.7
2023-03-24T21:13:54.458Z,15.7
2023-03-24T21:19:46.390Z,15.7
2023-03-24T21:25:40.512Z,15.7
2023-03-24T21:31:32.248Z,18.3
2023-03-24T21:37:24.206Z,21.3
2023-03-24T21:43:17.842Z,22.1
2023-03-24T21:49:12.202Z,20.1
2023-03-24T21:55:03.525Z,19.5
2023-03-24T22:00:55.325Z,19.1
2023-03-24T22:06:33.059Z,18.9
2023-03-24T22:17:48.126Z,18.5
2023-03-24T22:23:39.743Z,18.3
2023-03-24T22:29:32.544Z,21.3
2023-03-24T22:35:09.997Z,21.6
2023-03-24T22:40:46.553Z,20.1
2023-03-24T22:46:39.092Z,19.6
2023-03-24T22:52:31.020Z,19.3
2023-03-24T22:58:23.104Z,18.9
2023-03-24T23:04:23.561Z,18.8
2023-03-24T23:10:15.149Z,18.5
2023-03-24T23:15:35.435Z,18.3
2023-03-24T23:20:41.991Z,20.8
2023-03-24T23:26:26.977Z,22
2023-03-24T23:32:03.834Z,20.3
2023-03-24T23:37:43.328Z,19.7
2023-03-24T23:43:19.450Z,19.4
2023-03-24T23:48:56.821Z,19.1
2023-03-24T23:54:47.876Z,18.9
